Time;durP1;ratioP1;P1;durP2;ratioP2;P2;SDS_P1;SDS_P2;PMS_P1;PMS_P2;Temp;Humidity;BMP_temperature;BMP_pressure;BME280_temperature;BME280_humidity;BME280_pressure;Samples;Min_cycle;Max_cycle;Signal;HPM_P1;HPM_P2
2023/03/27 00:00:45;;;;;;;5.10;1.30;;;;;;;3.00;100.00;101198.44;5004450;28;20191;-71
2023/03/27 00:03:12;;;;;;;5.00;0.90;;;;;;;2.98;100.00;101200.00;5006766;28;20215;-72
2023/03/27 00:05:38;;;;;;;5.13;1.27;;;;;;;2.94;100.00;101200.63;5003179;28;20219;-71
2023/03/27 00:08:04;;;;;;;2.53;1.00;;;;;;;2.93;100.00;101206.44;5005627;28;20198;-71
2023/03/27 00:10:31;;;;;;;5.90;1.70;;;;;;;2.89;100.00;101210.47;5000266;28;20209;-72
2023/03/27 00:12:57;;;;;;;5.03;1.13;;;;;;;2.86;100.00;101217.03;4987269;28;20797;-72
2023/03/27 00:15:23;;;;;;;4.87;1.30;;;;;;;2.82;100.00;101212.59;5006865;28;20602;-71
2023/03/27 00:17:50;;;;;;;5.60;1.23;;;;;;;2.82;100.00;101221.06;5005795;28;20278;-71
2023/03/27 00:20:20;;;;;;;3.40;1.27;;;;;;;2.79;100.00;101220.00;5002446;28;20194;-71
2023/03/27 00:22:47;;;;;;;10.40;1.87;;;;;;;2.77;100.00;101229.16;5004059;28;20745;-71
2023/03/27 00:25:12;;;;;;;4.50;1.27;;;;;;;2.75;100.00;101233.28;5006807;28;20215;-72
2023/03/27 00:27:38;;;;;;;4.80;1.00;;;;;;;2.75;100.00;101225.69;4987284;28;20687;-71
2023/03/27 00:30:05;;;;;;;5.37;1.20;;;;;;;2.69;100.00;101222.78;5004181;28;20208;-72
2023/03/27 00:32:31;;;;;;;3.43;0.87;;;;;;;2.66;100.00;101223.50;5005433;28;20320;-71
2023/03/27 00:34:56;;;;;;;6.40;1.17;;;;;;;2.61;100.00;101219.84;5001288;28;20250;-72
2023/03/27 00:37:22;;;;;;;3.87;1.23;;;;;;;2.58;100.00;101222.19;5007788;28;20195;-71
2023/03/27 00:39:49;;;;;;;4.60;1.00;;;;;;;2.57;100.00;101222.97;5008408;28;20634;-72
2023/03/27 00:42:21;;;;;;;8.17;2.57;;;;;;;2.55;100.00;101224.56;5003938;28;20687;-71
2023/03/27 00:44:51;;;;;;;2.10;1.23;;;;;;;2.52;100.00;101219.31;4982751;28;20216;-72
2023/03/27 00:47:32;;;;;;;6.20;1.53;;;;;;;2.52;100.00;101223.50;5005984;28;20189;-71
2023/03/27 00:50:02;;;;;;;3.17;1.30;;;;;;;2.48;100.00;101221.59;5005158;28;20209;-71
2023/03/27 00:52:30;;;;;;;10.57;1.43;;;;;;;2.47;100.00;101227.41;4988805;28;20242;-72
2023/03/27 00:54:59;;;;;;;6.93;1.37;;;;;;;2.41;100.00;101224.53;5005123;28;20273;-72
2023/03/27 00:57:25;;;;;;;6.47;1.10;;;;;;;2.36;100.00;101219.25;5001737;28;20191;-72
2023/03/27 00:59:53;;;;;;;9.80;1.10;;;;;;;2.33;100.00;101219.06;5005915;28;20747;-71
2023/03/27 01:02:20;;;;;;;8.07;1.30;;;;;;;2.32;100.00;101207.22;5004237;28;20192;-71
2023/03/27 01:04:46;;;;;;;8.07;1.30;;;;;;;2.29;100.00;101211.22;5002791;28;20217;-71
2023/03/27 01:07:13;;;;;;;8.33;1.30;;;;;;;2.27;100.00;101203.56;4999797;28;20229;-71
2023/03/27 01:09:39;;;;;;;4.17;1.30;;;;;;;2.28;100.00;101215.41;5004642;28;20194;-71
2023/03/27 01:12:22;;;;;;;3.67;1.20;;;;;;;2.36;100.00;101208.25;5001863;28;20187;-71
2023/03/27 01:15:03;;;;;;;3.97;1.00;;;;;;;2.44;100.00;101202.00;4983478;28;20219;-72
2023/03/27 01:17:58;;;;;;;4.33;1.20;;;;;;;2.46;100.00;101210.50;5003806;28;20226;-72
2023/03/27 01:20:57;;;;;;;8.53;1.57;;;;;;;2.46;100.00;101216.44;4986991;28;20691;-72
2023/03/27 01:23:43;;;;;;;4.60;1.50;;;;;;;2.51;100.00;101220.09;5003590;28;20301;-71
2023/03/27 01:26:27;;;;;;;3.83;1.07;;;;;;;2.53;100.00;101226.09;4967442;28;22487;-71
2023/03/27 01:28:59;;;;;;;3.80;1.13;;;;;;;2.51;100.00;101216.69;4985565;28;20214;-71
2023/03/27 01:32:16;;;;;;;2.57;0.90;;;;;;;2.44;100.00;101218.00;4985259;28;20195;-71
2023/03/27 01:35:17;;;;;;;5.47;1.50;;;;;;;2.37;100.00;101220.97;4999316;28;20187;-71
2023/03/27 01:38:07;;;;;;;7.67;1.37;;;;;;;2.35;100.00;101231.78;5001300;28;20201;-71
2023/03/27 01:40:40;;;;;;;4.20;1.10;;;;;;;2.29;100.00;101227.22;4983684;28;20936;-71
2023/03/27 01:43:14;;;;;;;5.00;1.20;;;;;;;2.27;100.00;101221.22;4987262;28;20214;-71
2023/03/27 01:45:43;;;;;;;4.37;1.80;;;;;;;2.26;100.00;101221.13;5006289;28;20234;-71
2023/03/27 01:48:36;;;;;;;3.50;1.20;;;;;;;2.24;100.00;101227.75;5000185;28;20198;-72
2023/03/27 01:51:26;;;;;;;7.03;1.43;;;;;;;2.19;100.00;101227.50;4988859;28;20602;-72
2023/03/27 01:54:29;;;;;;;4.77;1.10;;;;;;;2.16;100.00;101218.88;4972772;28;20616;-72
2023/03/27 01:57:03;;;;;;;1.90;1.00;;;;;;;2.14;100.00;101223.81;4963835;28;20206;-72
2023/03/27 01:59:34;;;;;;;2.30;0.97;;;;;;;2.14;100.00;101233.03;4996450;28;20599;-72
2023/03/27 02:02:08;;;;;;;5.80;1.13;;;;;;;2.11;100.00;101227.84;5003542;28;20711;-71
2023/03/27 02:04:42;;;;;;;5.03;1.20;;;;;;;2.10;100.00;101232.00;5005665;28;20215;-71
2023/03/27 02:07:12;;;;;;;3.47;1.07;;;;;;;2.10;100.00;101229.47;5002239;28;20290;-71
2023/03/27 02:09:49;;;;;;;4.07;1.23;;;;;;;2.05;100.00;101230.84;4988254;28;20195;-71
2023/03/27 02:12:20;;;;;;;2.87;1.00;;;;;;;2.05;100.00;101235.03;4984359;28;20191;-71
2023/03/27 02:14:52;;;;;;;2.90;0.80;;;;;;;2.02;100.00;101240.75;4986577;28;20589;-71
2023/03/27 02:17:24;;;;;;;7.23;1.43;;;;;;;2.01;100.00;101254.19;5004157;28;20195;-71
2023/03/27 02:19:57;;;;;;;5.97;1.40;;;;;;;1.99;100.00;101248.19;5005199;28;20198;-71
2023/03/27 02:22:22;;;;;;;5.47;1.60;;;;;;;1.95;100.00;101252.94;4984319;28;20197;-71
2023/03/27 02:24:55;;;;;;;3.27;1.03;;;;;;;1.96;100.00;101267.31;4990154;28;20221;-71
2023/03/27 02:27:43;;;;;;;2.97;1.00;;;;;;;1.95;100.00;101265.56;5000764;28;20250;-71
2023/03/27 02:30:36;;;;;;;4.57;1.27;;;;;;;1.91;100.00;101267.03;4970731;28;20293;-72
2023/03/27 02:33:22;;;;;;;3.30;1.20;;;;;;;1.92;100.00;101275.50;4986490;28;20222;-71
2023/03/27 02:35:55;;;;;;;3.07;1.10;;;;;;;1.91;100.00;101258.56;5003443;28;20190;-71
2023/03/27 02:38:36;;;;;;;5.27;1.63;;;;;;;1.93;100.00;101259.56;5004800;28;20342;-71
2023/03/27 02:41:17;;;;;;;7.10;1.47;;;;;;;1.90;100.00;101257.72;4998986;28;20183;-71
2023/03/27 02:44:08;;;;;;;4.90;1.20;;;;;;;1.90;100.00;101254.31;4989717;28;20246;-72
2023/03/27 02:46:57;;;;;;;3.60;1.20;;;;;;;1.90;100.00;101254.31;5005471;28;20836;-71
2023/03/27 02:49:30;;;;;;;9.27;1.63;;;;;;;1.87;100.00;101247.44;4985923;28;20611;-71
2023/03/27 02:52:19;;;;;;;5.23;1.30;;;;;;;1.85;100.00;101251.53;4992525;28;20195;-72
2023/03/27 02:55:03;;;;;;;2.57;1.00;;;;;;;1.84;100.00;101236.28;5003993;28;20621;-71
2023/03/27 02:57:31;;;;;;;6.57;1.50;;;;;;;1.83;100.00;101227.84;4975190;28;20607;-72
2023/03/27 03:00:26;;;;;;;3.63;1.40;;;;;;;1.84;100.00;101221.16;5001638;28;20676;-71
2023/03/27 03:03:16;;;;;;;3.03;0.93;;;;;;;1.81;100.00;101204.19;4998304;28;20219;-71
2023/03/27 03:05:43;;;;;;;3.90;1.10;;;;;;;1.82;100.00;101189.88;4987477;28;20272;-71
2023/03/27 03:08:09;;;;;;;9.50;1.53;;;;;;;1.84;100.00;101185.81;5005335;28;20215;-71
2023/03/27 03:10:44;;;;;;;5.60;1.47;;;;;;;1.82;100.00;101180.66;4990939;28;20198;-71
2023/03/27 03:13:11;;;;;;;10.40;1.53;;;;;;;1.83;100.00;101177.34;5004879;28;20387;-72
2023/03/27 03:15:44;;;;;;;7.13;1.83;;;;;;;1.83;100.00;101179.88;4999824;28;20208;-71
2023/03/27 03:18:11;;;;;;;8.30;1.30;;;;;;;1.82;100.00;101185.72;5002663;28;20656;-71
2023/03/27 03:20:38;;;;;;;8.07;1.93;;;;;;;1.83;100.00;101187.47;4992988;28;20203;-71
2023/03/27 03:23:05;;;;;;;8.47;1.73;;;;;;;1.87;100.00;101186.84;4991869;28;20207;-71
2023/03/27 03:25:31;;;;;;;6.43;2.07;;;;;;;1.86;100.00;101192.69;5003210;28;20211;-72
2023/03/27 03:27:59;;;;;;;6.77;1.80;;;;;;;1.88;100.00;101191.13;4991480;28;20207;-71
2023/03/27 03:30:27;;;;;;;9.37;1.87;;;;;;;1.86;100.00;101197.75;4973800;28;20195;-71
2023/03/27 03:33:06;;;;;;;7.50;2.47;;;;;;;1.86;100.00;101199.38;5002079;28;20219;-71
2023/03/27 03:35:33;;;;;;;6.53;1.77;;;;;;;1.85;100.00;101198.53;4988182;28;20559;-70
2023/03/27 03:38:02;;;;;;;7.33;1.63;;;;;;;1.83;100.00;101202.59;5008334;28;20336;-70
2023/03/27 03:40:33;;;;;;;5.60;1.33;;;;;;;1.84;100.00;101206.00;4992489;28;20206;-71
2023/03/27 03:42:59;;;;;;;6.57;1.83;;;;;;;1.83;100.00;101204.28;5010486;28;20211;-71
2023/03/27 03:45:27;;;;;;;5.73;1.33;;;;;;;1.83;100.00;101205.13;4988608;28;20623;-71
2023/03/27 03:47:52;;;;;;;8.37;1.50;;;;;;;1.81;100.00;101210.88;5009360;28;20191;-71
2023/03/27 03:50:18;;;;;;;3.23;1.33;;;;;;;1.79;100.00;101213.28;5009071;28;20734;-71
2023/03/27 03:52:44;;;;;;;7.63;1.97;;;;;;;1.75;100.00;101211.34;4989913;28;20233;-71
2023/03/27 03:55:11;;;;;;;7.17;1.80;;;;;;;1.78;100.00;101205.63;4987302;28;20179;-71
2023/03/27 03:57:37;;;;;;;6.77;1.60;;;;;;;1.77;100.00;101217.38;4987852;28;20560;-71
2023/03/27 04:00:07;;;;;;;8.73;1.63;;;;;;;1.75;100.00;101218.94;4992172;28;20251;-71
2023/03/27 04:02:53;;;;;;;7.10;1.70;;;;;;;1.75;100.00;101221.44;5004545;28;20215;-71
2023/03/27 04:05:20;;;;;;;5.40;2.10;;;;;;;1.73;100.00;101217.09;5009913;28;20749;-71
2023/03/27 04:07:50;;;;;;;5.27;1.80;;;;;;;1.72;100.00;101226.34;5001789;28;20183;-71
2023/03/27 04:10:41;;;;;;;7.67;1.70;;;;;;;1.72;100.00;101228.88;4987993;28;20282;-71
2023/03/27 04:13:15;;;;;;;9.13;2.03;;;;;;;1.69;100.00;101237.91;5000979;28;20273;-71
2023/03/27 04:15:54;;;;;;;6.17;1.70;;;;;;;1.66;100.00;101235.19;4991756;28;20240;-70
2023/03/27 04:18:31;;;;;;;3.97;1.60;;;;;;;1.66;100.00;101240.22;4990101;28;20202;-72
2023/03/27 04:20:58;;;;;;;3.63;1.70;;;;;;;1.64;100.00;101244.28;4976958;28;20290;-72
2023/03/27 04:23:29;;;;;;;5.10;1.97;;;;;;;1.60;100.00;101250.81;4990525;28;20214;-70
2023/03/27 04:26:03;;;;;;;7.83;2.53;;;;;;;1.61;100.00;101256.75;4991395;28;20301;-71
2023/03/27 04:28:53;;;;;;;5.10;1.97;;;;;;;1.64;100.00;101250.22;5008041;28;20207;-70
2023/03/27 04:31:45;;;;;;;6.83;1.70;;;;;;;1.64;100.00;101247.72;5006326;28;20195;-70
2023/03/27 04:34:29;;;;;;;5.97;2.27;;;;;;;1.60;100.00;101247.44;5002418;28;20273;-70
2023/03/27 04:37:18;;;;;;;6.00;2.00;;;;;;;1.58;100.00;101252.38;5006958;28;20688;-70
2023/03/27 04:39:59;;;;;;;6.23;1.93;;;;;;;1.61;100.00;101259.28;5001979;28;20688;-70
2023/03/27 04:42:24;;;;;;;4.50;1.73;;;;;;;1.62;100.00;101261.00;4988298;28;20187;-70
2023/03/27 04:44:51;;;;;;;6.57;1.83;;;;;;;1.59;100.00;101261.69;4999321;28;20315;-70
2023/03/27 04:47:17;;;;;;;8.43;2.10;;;;;;;1.60;100.00;101262.56;5002262;28;20298;-70
2023/03/27 04:49:45;;;;;;;9.63;2.70;;;;;;;1.59;100.00;101255.75;4998175;28;20192;-70
2023/03/27 04:52:18;;;;;;;5.70;2.50;;;;;;;1.60;100.00;101272.66;4997248;28;20194;-70
2023/03/27 04:54:45;;;;;;;6.83;2.27;;;;;;;1.59;100.00;101274.31;4999895;28;20195;-70
2023/03/27 04:57:11;;;;;;;12.23;2.87;;;;;;;1.59;100.00;101269.25;5008082;28;20652;-70
2023/03/27 04:59:36;;;;;;;10.77;2.73;;;;;;;1.59;100.00;101266.75;5004585;28;20207;-70
2023/03/27 05:02:40;;;;;;;8.47;2.47;;;;;;;1.62;100.00;101273.63;5004459;28;20222;-70
2023/03/27 05:05:15;;;;;;;12.63;2.50;;;;;;;1.62;100.00;101273.63;4990663;28;20244;-70
2023/03/27 05:07:46;;;;;;;8.40;2.73;;;;;;;1.60;100.00;101283.63;5005752;28;20199;-70
2023/03/27 05:10:16;;;;;;;7.03;2.30;;;;;;;1.61;100.00;101276.94;5003560;28;20195;-70
2023/03/27 05:12:46;;;;;;;11.33;2.23;;;;;;;1.62;100.00;101277.03;4983952;28;20301;-70
2023/03/27 05:15:15;;;;;;;7.23;2.50;;;;;;;1.62;100.00;101284.59;4973917;28;20184;-70
2023/03/27 05:17:45;;;;;;;11.20;3.10;;;;;;;1.64;100.00;101288.06;5000345;28;20183;-70
2023/03/27 05:20:15;;;;;;;9.43;2.47;;;;;;;1.62;100.00;101294.69;4988638;28;20192;-70
2023/03/27 05:22:42;;;;;;;9.83;2.27;;;;;;;1.63;100.00;101298.97;4990623;28;20211;-70
2023/03/27 05:25:23;;;;;;;11.03;2.40;;;;;;;1.66;100.00;101304.16;4975031;28;20215;-70
2023/03/27 05:27:51;;;;;;;4.93;2.33;;;;;;;1.65;100.00;101304.09;5001675;28;20195;-70
2023/03/27 05:30:19;;;;;;;7.17;2.10;;;;;;;1.68;100.00;101309.31;5004890;28;20233;-70
2023/03/27 05:32:50;;;;;;;9.70;2.20;;;;;;;1.69;100.00;101311.94;5003876;28;20221;-70
2023/03/27 05:35:23;;;;;;;9.20;2.80;;;;;;;1.69;100.00;101322.03;4982095;28;20193;-70
2023/03/27 05:37:53;;;;;;;8.27;2.30;;;;;;;1.72;100.00;101316.28;5004202;28;20191;-70
2023/03/27 05:40:25;;;;;;;6.17;2.23;;;;;;;1.75;100.00;101327.44;5002135;28;20191;-70
2023/03/27 05:42:52;;;;;;;8.17;2.40;;;;;;;1.80;100.00;101326.09;4989756;28;20763;-70
2023/03/27 05:45:18;;;;;;;7.27;2.10;;;;;;;1.86;100.00;101330.63;4988412;28;20214;-70
2023/03/27 05:47:51;;;;;;;13.27;2.23;;;;;;;1.90;100.00;101327.53;4986723;28;20194;-70
2023/03/27 05:50:19;;;;;;;3.73;1.93;;;;;;;1.98;100.00;101322.16;5005305;28;20721;-71
2023/03/27 05:52:45;;;;;;;7.07;2.10;;;;;;;2.02;100.00;101333.34;5003800;28;20218;-70
2023/03/27 05:55:13;;;;;;;7.40;2.03;;;;;;;2.08;100.00;101324.47;5002022;28;20594;-70
2023/03/27 05:57:40;;;;;;;8.73;2.07;;;;;;;2.15;100.00;101329.09;4990569;28;20223;-70
2023/03/27 06:00:12;;;;;;;4.40;1.80;;;;;;;2.22;100.00;101336.28;4989897;28;20294;-70
2023/03/27 06:02:42;;;;;;;10.03;2.40;;;;;;;2.31;100.00;101328.38;5011392;28;20225;-70
2023/03/27 06:05:09;;;;;;;6.37;1.90;;;;;;;2.40;100.00;101328.91;4977920;28;20210;-70
2023/03/27 06:07:37;;;;;;;5.93;2.07;;;;;;;2.49;100.00;101334.50;4994483;28;20187;-70
2023/03/27 06:10:06;;;;;;;5.60;1.80;;;;;;;2.57;100.00;101338.38;4988914;28;20188;-70
2023/03/27 06:13:01;;;;;;;6.87;2.10;;;;;;;2.68;100.00;101334.78;5005175;28;20254;-70
2023/03/27 06:15:42;;;;;;;5.40;2.40;;;;;;;2.79;100.00;101338.81;5008780;28;20555;-70
2023/03/27 06:18:16;;;;;;;8.50;2.13;;;;;;;2.88;100.00;101341.88;4991922;28;20268;-70
2023/03/27 06:20:42;;;;;;;9.20;1.97;;;;;;;2.97;100.00;101343.28;5008977;28;20668;-70
2023/03/27 06:23:08;;;;;;;6.67;2.00;;;;;;;3.07;100.00;101350.59;5003488;28;20260;-70
2023/03/27 06:25:37;;;;;;;4.80;1.90;;;;;;;3.14;100.00;101351.81;4978018;28;20231;-70
2023/03/27 06:28:05;;;;;;;4.93;1.93;;;;;;;3.26;100.00;101355.06;5002736;28;20195;-71
2023/03/27 06:30:37;;;;;;;5.43;1.87;;;;;;;3.39;100.00;101355.81;5007993;28;20620;-71
2023/03/27 06:33:24;;;;;;;8.70;2.27;;;;;;;3.50;100.00;101359.78;5010367;28;20245;-70
2023/03/27 06:35:51;;;;;;;7.83;2.37;;;;;;;3.57;100.00;101359.34;5003514;28;20199;-70
2023/03/27 06:38:19;;;;;;;7.67;2.70;;;;;;;3.67;100.00;101364.13;4992214;28;20191;-71
2023/03/27 06:40:45;;;;;;;5.93;2.50;;;;;;;3.73;100.00;101369.53;5008930;28;20751;-72
2023/03/27 06:43:12;;;;;;;5.93;2.43;;;;;;;3.80;100.00;101363.13;4991143;28;20218;-72
2023/03/27 06:45:49;;;;;;;6.83;2.20;;;;;;;3.95;100.00;101366.53;5005997;28;20211;-72
2023/03/27 06:48:33;;;;;;;9.50;2.67;;;;;;;4.11;100.00;101380.09;5008449;28;20753;-71
2023/03/27 06:51:02;;;;;;;8.13;2.37;;;;;;;4.16;100.00;101372.72;5007070;28;20652;-72
2023/03/27 06:53:28;;;;;;;6.60;2.50;;;;;;;4.21;100.00;101369.63;4989583;28;20302;-72
2023/03/27 06:55:54;;;;;;;6.20;2.30;;;;;;;4.35;100.00;101376.31;5005282;28;20671;-72
2023/03/27 06:58:21;;;;;;;9.90;2.90;;;;;;;4.50;100.00;101376.19;5004824;28;20657;-72
2023/03/27 07:00:48;;;;;;;6.93;2.10;;;;;;;4.64;100.00;101385.38;4991271;28;20189;-71
2023/03/27 07:03:32;;;;;;;7.57;2.30;;;;;;;4.85;100.00;101394.09;5005221;28;20203;-72
2023/03/27 07:06:26;;;;;;;7.30;2.10;;;;;;;4.91;100.00;101384.25;5006497;28;20215;-71
2023/03/27 07:08:57;;;;;;;9.33;2.00;;;;;;;4.98;100.00;101387.16;4988833;28;20198;-71
2023/03/27 07:11:24;;;;;;;8.50;2.40;;;;;;;5.06;100.00;101388.44;5001037;28;20648;-71
2023/03/27 07:13:55;;;;;;;7.60;2.37;;;;;;;5.10;100.00;101382.72;4983112;28;20210;-71
2023/03/27 07:16:25;;;;;;;6.23;1.90;;;;;;;5.06;100.00;101385.03;5004778;28;20191;-71
2023/03/27 07:18:51;;;;;;;4.57;1.57;;;;;;;5.41;100.00;101378.34;4989579;28;20193;-71
2023/03/27 07:21:16;;;;;;;5.33;2.00;;;;;;;5.27;100.00;101369.19;5002802;28;20207;-71
2023/03/27 07:23:42;;;;;;;3.47;1.50;;;;;;;5.14;100.00;101389.69;4992426;28;20218;-71
2023/03/27 07:26:10;;;;;;;8.80;2.20;;;;;;;4.96;100.00;101442.06;5007376;28;20235;-71
2023/03/27 07:28:54;;;;;;;2.93;1.10;;;;;;;4.25;100.00;101456.81;4987911;28;20689;-71
2023/03/27 07:31:21;;;;;;;4.77;1.27;;;;;;;3.89;100.00;101432.91;5004206;28;20744;-71
2023/03/27 07:33:47;;;;;;;3.27;0.83;;;;;;;3.76;100.00;101450.72;4989470;28;20265;-71
2023/03/27 07:36:13;;;;;;;2.47;1.23;;;;;;;3.72;100.00;101458.09;5006816;28;20248;-71
2023/03/27 07:38:57;;;;;;;4.17;1.30;;;;;;;3.73;100.00;101454.75;5006269;28;20294;-72
2023/03/27 07:41:24;;;;;;;7.47;1.60;;;;;;;4.12;100.00;101452.75;5006385;28;20826;-72
2023/03/27 07:43:56;;;;;;;5.27;1.30;;;;;;;4.65;100.00;101443.81;5007944;28;20305;-72
2023/03/27 07:46:22;;;;;;;5.90;1.50;;;;;;;4.93;100.00;101436.81;5004465;28;20283;-71
2023/03/27 07:48:49;;;;;;;4.57;1.73;;;;;;;5.24;100.00;101439.22;5004817;28;20562;-72
2023/03/27 07:51:18;;;;;;;5.17;1.80;;;;;;;5.45;100.00;101428.50;4998647;28;20272;-72
2023/03/27 07:53:44;;;;;;;5.70;1.73;;;;;;;5.52;100.00;101427.97;4991379;28;20210;-72
2023/03/27 07:56:19;;;;;;;3.93;1.53;;;;;;;5.76;100.00;101423.22;5005975;28;20188;-72
2023/03/27 07:58:46;;;;;;;6.30;1.50;;;;;;;5.98;100.00;101406.53;4999470;28;20198;-72
2023/03/27 08:01:17;;;;;;;4.03;1.60;;;;;;;6.06;100.00;101379.81;4990634;28;20198;-73
2023/03/27 08:03:47;;;;;;;4.30;1.63;;;;;;;6.46;100.00;101382.47;5001939;28;20213;-72
2023/03/27 08:06:13;;;;;;;2.90;1.30;;;;;;;6.49;100.00;101352.09;5002821;28;20303;-72
2023/03/27 08:08:38;;;;;;;6.43;1.43;;;;;;;6.65;100.00;101319.72;5004152;28;20199;-72
2023/03/27 08:11:05;;;;;;;5.70;1.67;;;;;;;7.04;100.00;101334.09;4987832;28;20202;-73
2023/03/27 08:13:35;;;;;;;3.50;1.27;;;;;;;7.02;100.00;101291.56;5001651;28;20293;-72
2023/03/27 08:16:03;;;;;;;4.10;1.30;;;;;;;7.37;100.00;101312.53;5008609;28;20571;-72
2023/03/27 08:18:29;;;;;;;4.83;1.47;;;;;;;7.58;100.00;101229.28;4991375;28;20218;-73
2023/03/27 08:20:56;;;;;;;5.57;1.33;;;;;;;7.68;100.00;101215.19;5003465;28;20221;-72
2023/03/27 08:23:26;;;;;;;7.40;1.07;;;;;;;7.35;100.00;101173.19;4999542;28;20298;-72
2023/03/27 08:26:07;;;;;;;3.13;1.20;;;;;;;7.18;100.00;101175.09;5004813;28;20692;-73
2023/03/27 08:28:41;;;;;;;6.67;1.40;;;;;;;7.35;100.00;101142.63;4990850;28;20304;-72
2023/03/27 08:31:13;;;;;;;4.83;1.17;;;;;;;7.55;100.00;101127.25;5001150;28;20274;-72
2023/03/27 08:33:40;;;;;;;4.43;1.10;;;;;;;7.93;100.00;101045.31;4990820;28;20211;-73
2023/03/27 08:36:13;;;;;;;3.33;0.90;;;;;;;7.41;100.00;100982.41;5001277;28;20603;-73
2023/03/27 08:38:40;;;;;;;3.23;1.13;;;;;;;7.87;100.00;100958.47;4987752;28;20198;-72
2023/03/27 08:41:40;;;;;;;6.43;1.20;;;;;;;8.09;100.00;100960.88;5004173;28;20838;-72
2023/03/27 08:44:23;;;;;;;3.40;1.10;;;;;;;8.29;100.00;100962.38;4988066;28;20219;-72
2023/03/27 08:46:52;;;;;;;4.53;1.30;;;;;;;8.30;100.00;100928.38;5002893;28;20257;-72
2023/03/27 08:49:20;;;;;;;6.67;1.10;;;;;;;8.23;100.00;100905.19;4973763;28;20195;-72
2023/03/27 08:52:21;;;;;;;5.13;1.50;;;;;;;8.45;100.00;100915.22;4998502;28;20195;-72
2023/03/27 08:54:57;;;;;;;3.97;1.33;;;;;;;8.20;100.00;100870.28;5001894;28;20213;-72
2023/03/27 08:57:31;;;;;;;6.07;1.47;;;;;;;7.87;100.00;100879.44;5003153;28;20198;-72
2023/03/27 09:00:08;;;;;;;6.63;1.40;;;;;;;7.59;100.00;100925.25;4991475;28;20613;-72
2023/03/27 09:02:47;;;;;;;5.83;1.10;;;;;;;7.37;100.00;100924.53;4999465;28;20240;-72
2023/03/27 09:05:39;;;;;;;4.80;1.20;;;;;;;8.40;100.00;100912.53;5000432;28;20226;-71
2023/03/27 09:08:34;;;;;;;3.30;1.40;;;;;;;9.10;99.51;100826.81;4968744;28;20196;-72
2023/03/27 09:11:27;;;;;;;3.97;1.00;;;;;;;8.75;98.26;100816.53;4968051;28;20733;-71
2023/03/27 09:14:03;;;;;;;5.97;1.40;;;;;;;8.02;96.66;100805.09;4999672;28;20780;-72
2023/03/27 09:16:34;;;;;;;3.93;1.17;;;;;;;8.10;92.41;100770.47;5009697;28;20596;-72
2023/03/27 09:19:12;;;;;;;5.90;1.53;;;;;;;7.87;100.00;100897.28;5023294;28;20190;-72
2023/03/27 09:21:45;;;;;;;4.20;1.43;;;;;;;7.51;100.00;100976.78;5009991;28;20239;-72
2023/03/27 09:24:39;;;;;;;4.80;1.13;;;;;;;7.87;100.00;101082.53;5003870;28;20687;-71
2023/03/27 09:27:31;;;;;;;4.50;1.30;;;;;;;7.87;100.00;101040.03;5024096;28;20277;-71
2023/03/27 09:30:13;;;;;;;5.33;1.37;;;;;;;8.30;98.88;100894.38;5011257;28;20213;-70
2023/03/27 09:32:47;;;;;;;3.87;1.10;;;;;;;7.98;97.26;100857.69;5019167;28;20260;-71
2023/03/27 09:35:14;;;;;;;3.97;1.20;;;;;;;8.06;91.96;100815.41;5014241;28;20230;-71
2023/03/27 09:37:41;;;;;;;4.47;1.20;;;;;;;8.08;100.00;100884.31;5014427;28;20192;-71
2023/03/27 09:40:22;;;;;;;6.07;1.47;;;;;;;10.18;70.89;100606.72;5010763;28;20186;-71
2023/03/27 09:42:52;;;;;;;4.50;1.07;;;;;;;15.10;48.81;100196.88;5013891;28;20210;-71
2023/03/27 09:45:19;;;;;;;4.50;1.10;;;;;;;15.10;42.75;100923.38;5013609;28;20596;-72
2023/03/27 09:48:00;;;;;;;4.13;1.20;;;;;;;13.42;46.65;101067.28;5014883;28;20193;-71
2023/03/27 09:50:48;;;;;;;2.90;1.07;;;;;;;13.89;45.29;101062.59;5025906;28;20202;-71
2023/03/27 09:53:58;;;;;;;2.37;0.77;;;;;;;13.63;42.25;101071.81;5020006;28;20218;-73
2023/03/27 09:56:28;;;;;;;4.77;1.00;;;;;;;11.10;49.57;101233.44;5004091;28;20187;-71
2023/03/27 09:58:56;;;;;;;4.93;1.30;;;;;;;9.97;56.04;101321.66;5010539;28;20281;-71
2023/03/27 10:01:21;;;;;;;2.80;1.07;;;;;;;9.54;66.55;101388.53;5010235;28;20197;-71
2023/03/27 10:03:53;;;;;;;3.07;1.20;;;;;;;15.45;46.96;101135.94;5015650;28;20328;-72
2023/03/27 10:07:04;;;;;;;3.13;1.50;;;;;;;16.16;39.18;101130.13;5014275;28;20206;-72
2023/03/27 10:09:40;;;;;;;2.53;1.13;;;;;;;11.74;48.31;101349.47;5013498;28;20683;-72
2023/03/27 10:12:15;;;;;;;2.53;1.10;;;;;;;14.86;42.76;101230.13;5003236;28;20567;-72
2023/03/27 10:14:46;;;;;;;4.40;1.20;;;;;;;11.36;49.79;101389.59;5014009;28;20252;-72
2023/03/27 10:17:28;;;;;;;3.93;1.07;;;;;;;10.12;54.58;101466.31;5012742;28;20201;-71
2023/03/27 10:20:11;;;;;;;3.60;1.10;;;;;;;10.19;58.86;101501.50;5004542;28;20723;-71
2023/03/27 10:22:50;;;;;;;2.87;1.00;;;;;;;16.86;38.28;101182.78;5008566;28;20214;-73
2023/03/27 10:25:38;;;;;;;3.70;1.10;;;;;;;13.39;42.82;101293.59;5012248;28;20209;-72
2023/03/27 10:28:28;;;;;;;3.50;1.00;;;;;;;11.05;50.12;101419.50;5026651;28;20274;-71
2023/03/27 10:31:48;;;;;;;2.00;1.10;;;;;;;20.36;33.92;101186.19;5027621;28;20238;-72
2023/03/27 10:34:56;;;;;;;2.80;1.10;;;;;;;21.52;32.57;101216.31;5001372;28;20268;-72
2023/03/27 10:37:41;;;;;;;2.20;0.90;;;;;;;24.52;28.63;101247.06;5025175;28;20306;-72
2023/03/27 10:40:36;;;;;;;3.92;1.10;;;;;;;21.14;29.70;101342.06;5024877;28;20194;-72
2023/03/27 10:43:35;;;;;;;3.35;1.13;;;;;;;22.41;30.66;101365.88;5006459;28;20228;-72
2023/03/27 10:46:04;;;;;;;4.72;1.40;;;;;;;20.69;31.09;101347.91;5009427;28;20340;-72
2023/03/27 10:48:58;;;;;;;4.53;0.90;;;;;;;17.50;33.06;101365.69;5011036;28;20491;-72
2023/03/27 10:51:33;;;;;;;3.43;0.77;;;;;;;14.43;38.74;101441.91;4990947;28;20231;-72
2023/03/27 10:54:14;;;;;;;1.97;0.73;;;;;;;13.94;39.65;101463.47;5011955;28;20264;-71
2023/03/27 10:56:52;;;;;;;3.03;0.83;;;;;;;12.06;43.61;101499.94;5005122;28;20270;-70
2023/03/27 10:59:43;;;;;;;3.87;1.20;;;;;;;11.24;47.71;101540.50;5006305;28;20190;-69
2023/03/27 11:02:56;;;;;;;1.90;0.93;;;;;;;10.24;52.35;101583.56;5020101;28;20222;-71
2023/03/27 11:05:29;;;;;;;3.40;0.97;;;;;;;9.38;51.99;101611.22;5005377;28;20222;-70
2023/03/27 11:08:07;;;;;;;3.00;0.90;;;;;;;8.59;82.85;101711.13;5003761;28;20195;-69
2023/03/27 11:10:59;;;;;;;4.50;1.03;;;;;;;7.29;100.00;101790.22;5010201;28;20210;-69
2023/03/27 11:13:32;;;;;;;2.20;0.70;;;;;;;6.48;100.00;101839.56;5007435;28;20211;-70
2023/03/27 11:16:20;;;;;;;2.23;0.70;;;;;;;5.71;100.00;101869.25;5019528;28;20186;-71
2023/03/27 11:19:09;;;;;;;2.07;0.73;;;;;;;5.40;100.00;101865.78;4997718;28;20194;-71
2023/03/27 11:22:03;;;;;;;1.00;0.60;;;;;;;5.43;100.00;101861.75;5004911;28;20194;-70
2023/03/27 11:25:13;;;;;;;0.80;0.60;;;;;;;5.53;100.00;101850.44;5006498;28;20219;-70
2023/03/27 11:27:45;;;;;;;1.17;0.53;;;;;;;6.65;100.00;101787.88;5021615;28;20206;-71
2023/03/27 11:30:47;;;;;;;0.77;0.50;;;;;;;8.60;100.00;101633.72;5008932;28;20194;-72
2023/03/27 11:33:26;;;;;;;0.53;0.40;;;;;;;8.89;100.00;101610.19;5010939;28;20229;-72
2023/03/27 11:36:25;;;;;;;0.47;0.40;;;;;;;9.40;100.00;101544.81;5009207;28;20183;-72
2023/03/27 11:39:16;;;;;;;1.90;0.50;;;;;;;9.92;100.00;101504.84;4996814;28;20197;-71
2023/03/27 11:41:52;;;;;;;0.60;0.57;;;;;;;10.61;100.00;101441.38;5016738;28;20720;-71
2023/03/27 11:44:18;;;;;;;1.07;0.70;;;;;;;10.15;100.00;101470.66;5007778;28;20582;-70
2023/03/27 11:47:18;;;;;;;2.07;0.67;;;;;;;10.63;100.00;101418.31;5024554;28;20794;-70
2023/03/27 11:49:46;;;;;;;1.90;0.80;;;;;;;10.80;100.00;101397.50;5001660;28;20566;-70
2023/03/27 11:53:07;;;;;;;2.30;0.80;;;;;;;11.47;100.00;101347.09;4995537;28;20578;-69
2023/03/27 11:56:14;;;;;;;1.43;0.97;;;;;;;11.13;100.00;101292.44;4913503;28;20210;-69
2023/03/27 11:58:55;;;;;;;1.70;0.70;;;;;;;11.22;100.00;101265.34;4999508;28;20787;-69
2023/03/27 12:01:38;;;;;;;1.33;0.70;;;;;;;10.60;100.00;101282.53;4980953;28;20595;-69
2023/03/27 12:04:17;;;;;;;1.50;0.70;;;;;;;10.96;100.00;101317.63;5005534;28;20387;-69